createdAt,value
2018-10-17T00:02:22.922Z,101425.24
2018-10-17T00:04:56.186Z,101427.86
2018-10-17T00:07:26.238Z,101424.45
2018-10-17T00:09:55.149Z,101421.52
2018-10-17T00:12:24.117Z,101417.36
2018-10-17T00:14:53.051Z,101419.59
2018-10-17T00:17:21.976Z,101422.88
2018-10-17T00:19:54.275Z,101419.16
2018-10-17T00:22:23.142Z,101416.73
2018-10-17T00:24:52.023Z,101420.23
2018-10-17T00:27:20.919Z,101418.25
2018-10-17T00:29:49.876Z,101415.81
2018-10-17T00:32:24.018Z,101412.44
2018-10-17T00:35:04.984Z,101417.98
2018-10-17T00:37:38.008Z,101421.62
2018-10-17T00:40:07.578Z,101416.18
2018-10-17T00:42:37.953Z,101418.09
2018-10-17T00:45:08.376Z,101409.79
2018-10-17T00:47:37.325Z,101406.59
2018-10-17T00:50:10.694Z,101401.04
2018-10-17T00:52:39.616Z,101402.84
2018-10-17T00:55:22.222Z,101398.91
2018-10-17T00:57:53.189Z,101399.68
2018-10-17T01:00:36.825Z,101398.43
2018-10-17T01:03:07.798Z,101398.98
2018-10-17T01:05:36.728Z,101395.11
2018-10-17T01:08:05.631Z,101388.62
2018-10-17T01:10:34.498Z,101384.46
2018-10-17T01:13:05.556Z,101383.31
2018-10-17T01:15:34.438Z,101383.06
2018-10-17T01:18:06.759Z,101389.72
2018-10-17T01:20:40.686Z,101389.09
2018-10-17T01:23:10.622Z,101394.53
2018-10-17T01:25:39.516Z,101392.09
2018-10-17T01:28:21.919Z,101391.08
2018-10-17T01:30:54.711Z,101395.31
2018-10-17T01:33:25.664Z,101394.42
2018-10-17T01:35:54.610Z,101394.31
2018-10-17T01:38:33.625Z,101395.72
2018-10-17T01:41:02.681Z,101397.80
2018-10-17T01:43:39.133Z,101394.23
2018-10-17T01:46:08.145Z,101399.16
2018-10-17T01:48:37.042Z,101393.72
2018-10-17T01:51:06.389Z,101401.38
2018-10-17T01:53:35.305Z,101404.60
2018-10-17T01:56:06.421Z,101403.98
2018-10-17T01:58:35.324Z,101404.13
2018-10-17T02:01:08.534Z,101407.31
2018-10-17T02:03:37.430Z,101400.70
2018-10-17T02:06:07.129Z,101396.39
2018-10-17T02:08:36.076Z,101398.48
2018-10-17T02:11:05.130Z,101395.01
2018-10-17T02:13:33.990Z,101393.31
2018-10-17T02:16:17.071Z,101398.53
2018-10-17T02:18:58.825Z,101393.05
2018-10-17T02:21:28.756Z,101391.23
2018-10-17T02:24:00.120Z,101386.91
2018-10-17T02:26:29.073Z,101392.45
2018-10-17T02:28:58.190Z,101384.22
2018-10-17T02:31:30.424Z,101382.81
2018-10-17T02:33:59.445Z,101391.39
2018-10-17T02:36:29.453Z,101388.25
2018-10-17T02:39:02.899Z,101388.30
2018-10-17T02:41:36.902Z,101388.67
2018-10-17T02:44:06.229Z,101392.19
2018-10-17T02:46:47.603Z,101395.11
2018-10-17T02:49:28.584Z,101391.71
2018-10-17T02:52:07.917Z,101387.16
2018-10-17T02:54:36.841Z,101384.98
2018-10-17T02:57:09.120Z,101389.77
2018-10-17T02:59:37.971Z,101389.67
2018-10-17T03:02:07.324Z,101383.97
2018-10-17T03:04:37.330Z,101396.45
2018-10-17T03:07:10.068Z,101394.31
2018-10-17T03:09:38.943Z,101398.09
2018-10-17T03:12:07.910Z,101391.18
2018-10-17T03:14:36.882Z,101394.93
2018-10-17T03:17:20.432Z,101399.27
2018-10-17T03:19:49.359Z,101401.72
2018-10-17T03:22:18.310Z,101405.88
2018-10-17T03:24:47.187Z,101412.08
2018-10-17T03:27:21.091Z,101407.70
2018-10-17T03:29:50.099Z,101410.13
2018-10-17T03:32:19.727Z,101410.03
2018-10-17T03:34:48.645Z,101409.87
2018-10-17T03:37:25.265Z,101408.30
2018-10-17T03:40:01.241Z,101411.98
2018-10-17T03:42:40.017Z,101415.96
2018-10-17T03:47:53.568Z,101416.56
2018-10-17T03:50:29.822Z,101417.97
2018-10-17T03:52:59.776Z,101416.83
2018-10-17T03:55:28.889Z,101416.51
2018-10-17T03:57:57.856Z,101408.70
2018-10-17T04:00:30.827Z,101413.17
2018-10-17T04:02:59.767Z,101414.98
2018-10-17T04:05:28.670Z,101419.11
2018-10-17T04:08:12.066Z,101419.00
2018-10-17T04:10:45.186Z,101414.08
2018-10-17T04:13:15.305Z,101421.27
2018-10-17T04:15:50.097Z,101417.95
2018-10-17T04:18:23.567Z,101416.69
2018-10-17T04:23:46.637Z,101420.76
2018-10-17T04:26:15.948Z,101426.38
2018-10-17T04:28:45.935Z,101424.57
2018-10-17T04:31:14.950Z,101422.05
2018-10-17T04:33:43.856Z,101424.38
2018-10-17T04:36:12.751Z,101423.56
2018-10-17T04:38:42.775Z,101425.92
2018-10-17T04:41:16.294Z,101421.96
2018-10-17T04:43:47.171Z,101424.48
2018-10-17T04:46:16.100Z,101428.09
2018-10-17T04:48:45.168Z,101427.39
2018-10-17T04:51:17.732Z,101441.83
2018-10-17T04:53:48.681Z,101441.61
2018-10-17T04:56:17.621Z,101439.05
2018-10-17T04:58:46.566Z,101440.20
2018-10-17T05:01:15.528Z,101443.75
2018-10-17T05:03:47.839Z,101440.55
2018-10-17T05:06:21.945Z,101445.38
2018-10-17T05:08:54.863Z,101449.91
2018-10-17T05:11:23.822Z,101446.98
2018-10-17T05:13:54.850Z,101445.48
2018-10-17T05:16:24.084Z,101437.98
2018-10-17T05:18:55.125Z,101441.61
2018-10-17T05:21:24.022Z,101447.63
2018-10-17T05:23:58.237Z,101454.42
2018-10-17T05:26:29.896Z,101442.45
2018-10-17T05:28:58.909Z,101445.44
2018-10-17T05:31:28.848Z,101443.86
2018-10-17T05:33:58.921Z,101446.23
2018-10-17T05:36:29.848Z,101453.63
2018-10-17T05:38:59.798Z,101452.05
2018-10-17T05:41:28.828Z,101453.95
2018-10-17T05:43:57.787Z,101455.13
2018-10-17T05:46:29.878Z,101449.39
2018-10-17T05:48:58.903Z,101453.66
2018-10-17T05:51:35.052Z,101455.06
2018-10-17T05:54:09.752Z,101458.97
2018-10-17T05:56:40.805Z,101461.11
2018-10-17T06:02:12.343Z,101458.22
2018-10-17T06:04:43.084Z,101455.41
2018-10-17T06:07:30.754Z,101461.27
2018-10-17T06:10:01.745Z,101461.28
2018-10-17T06:12:36.237Z,101460.05
2018-10-17T06:15:07.548Z,101462.04
2018-10-17T06:17:36.530Z,101465.56
2018-10-17T06:20:08.794Z,101460.34
2018-10-17T06:22:42.683Z,101469.09
2018-10-17T06:25:13.815Z,101466.19
2018-10-17T06:30:37.962Z,101469.47
2018-10-17T06:33:06.973Z,101468.54
2018-10-17T06:35:35.915Z,101467.23
2018-10-17T06:38:08.903Z,101466.58
2018-10-17T06:40:38.896Z,101469.03
2018-10-17T06:43:08.095Z,101461.05
2018-10-17T06:45:37.031Z,101467.84
2018-10-17T06:48:17.900Z,101461.41
2018-10-17T06:50:50.393Z,101467.55
2018-10-17T06:53:36.075Z,101467.77
2018-10-17T06:56:05.501Z,101464.70
2018-10-17T06:58:34.681Z,101470.23
2018-10-17T07:01:03.707Z,101467.00
2018-10-17T07:03:36.293Z,101473.95
2018-10-17T07:09:03.245Z,101473.47
2018-10-17T07:11:39.928Z,101472.56
2018-10-17T07:14:11.106Z,101485.79
2018-10-17T07:16:42.024Z,101481.42
2018-10-17T07:19:13.201Z,101479.90
2018-10-17T07:21:42.089Z,101481.31
2018-10-17T07:24:11.063Z,101474.58
2018-10-17T07:26:40.074Z,101476.09
2018-10-17T07:29:09.158Z,101473.39
2018-10-17T07:31:38.205Z,101477.10
2018-10-17T07:34:07.168Z,101472.00
2018-10-17T07:36:36.130Z,101472.98
2018-10-17T07:39:24.567Z,101478.11
2018-10-17T07:41:57.427Z,101474.77
2018-10-17T07:44:38.758Z,101474.59
2018-10-17T07:47:11.735Z,101474.45
2018-10-17T07:49:46.658Z,101471.83
2018-10-17T07:52:16.563Z,101471.39
2018-10-17T07:54:46.545Z,101469.56
2018-10-17T07:57:17.533Z,101482.98
2018-10-17T07:59:54.259Z,101482.59
2018-10-17T08:02:26.871Z,101479.92
2018-10-17T08:04:56.860Z,101487.36
2018-10-17T08:10:26.390Z,101491.97
2018-10-17T08:13:00.833Z,101498.79
2018-10-17T08:15:35.372Z,101497.53
2018-10-17T08:18:06.380Z,101497.97
2018-10-17T08:20:35.435Z,101493.38
2018-10-17T08:23:06.180Z,101499.02
2018-10-17T08:25:55.940Z,101504.64
2018-10-17T08:28:24.858Z,101504.73
2018-10-17T08:30:53.759Z,101509.26
2018-10-17T08:33:22.708Z,101508.23
2018-10-17T08:35:55.582Z,101500.47
2018-10-17T08:38:24.412Z,101501.33
2018-10-17T08:40:53.407Z,101506.12
2018-10-17T08:43:30.665Z,101503.02
2018-10-17T08:45:59.574Z,101502.33
2018-10-17T08:48:32.794Z,101505.52
2018-10-17T08:51:03.843Z,101504.56
2018-10-17T08:53:32.743Z,101513.05
2018-10-17T08:56:08.438Z,101515.70
2018-10-17T08:58:37.488Z,101516.01
2018-10-17T09:01:06.684Z,101520.58
2018-10-17T09:03:37.672Z,101520.22
2018-10-17T09:06:10.584Z,101516.47
2018-10-17T09:08:53.043Z,101520.03
2018-10-17T09:11:22.054Z,101521.66
2018-10-17T09:13:54.485Z,101528.56
2018-10-17T09:16:33.547Z,101534.56
2018-10-17T09:19:02.453Z,101539.86
2018-10-17T09:21:36.170Z,101534.67
2018-10-17T09:24:05.000Z,101534.13
2018-10-17T09:26:34.011Z,101540.23
2018-10-17T09:32:04.341Z,101531.64
2018-10-17T09:34:33.387Z,101540.47
2018-10-17T09:37:02.397Z,101533.11
2018-10-17T09:39:38.376Z,101537.27
2018-10-17T09:42:08.513Z,101529.73
2018-10-17T09:44:40.856Z,101529.28
2018-10-17T09:47:10.819Z,101526.88
2018-10-17T09:49:39.861Z,101518.45
2018-10-17T09:52:12.154Z,101522.08
2018-10-17T09:54:47.739Z,101523.44
2018-10-17T09:57:27.168Z,101522.48
2018-10-17T09:59:56.145Z,101521.47
2018-10-17T10:02:38.873Z,101519.88
2018-10-17T10:05:07.863Z,101526.16
2018-10-17T10:07:36.980Z,101529.20
2018-10-17T10:10:06.499Z,101532.42
2018-10-17T10:12:36.479Z,101520.66
2018-10-17T10:15:05.503Z,101523.67
2018-10-17T10:17:34.563Z,101525.64
2018-10-17T10:20:14.139Z,101523.52
2018-10-17T10:22:48.490Z,101523.39
2018-10-17T10:25:23.530Z,101523.70
2018-10-17T10:27:53.513Z,101519.89
2018-10-17T10:30:26.541Z,101522.19
2018-10-17T10:32:55.537Z,101512.09
2018-10-17T10:35:24.468Z,101510.72
2018-10-17T10:37:57.265Z,101508.62
2018-10-17T10:40:29.469Z,101506.22
2018-10-17T10:43:00.346Z,101507.30
2018-10-17T10:45:34.197Z,101502.70
2018-10-17T10:48:07.960Z,101505.71
2018-10-17T10:50:42.045Z,101503.58
2018-10-17T10:53:11.245Z,101505.82
2018-10-17T10:55:40.206Z,101496.55
2018-10-17T11:01:05.483Z,101496.92
2018-10-17T11:06:28.747Z,101493.78
2018-10-17T11:08:57.662Z,101491.66
2018-10-17T11:11:26.635Z,101496.57
2018-10-17T11:13:57.648Z,101487.89
2018-10-17T11:16:26.782Z,101487.31
2018-10-17T11:18:55.703Z,101485.66
2018-10-17T11:21:41.727Z,101487.97
2018-10-17T11:24:10.720Z,101475.70
2018-10-17T11:26:43.681Z,101477.89
2018-10-17T11:29:29.517Z,101482.60
2018-10-17T11:31:59.479Z,101477.14
2018-10-17T11:34:39.620Z,101472.20
2018-10-17T11:37:19.778Z,101461.88
2018-10-17T11:39:53.386Z,101462.16
2018-10-17T11:45:26.846Z,101465.44
2018-10-17T11:48:01.268Z,101460.52
2018-10-17T11:50:32.369Z,101460.80
2018-10-17T11:53:03.921Z,101460.25
2018-10-17T11:55:45.666Z,101451.53
2018-10-17T11:58:32.368Z,101449.92
2018-10-17T12:01:06.816Z,101455.41
2018-10-17T12:03:36.871Z,101449.42
2018-10-17T12:06:06.098Z,101448.59
2018-10-17T12:08:40.697Z,101454.88
2018-10-17T12:11:11.296Z,101456.59
2018-10-17T12:13:40.223Z,101447.61
2018-10-17T12:16:09.260Z,101444.88
2018-10-17T12:18:38.320Z,101445.16
2018-10-17T12:21:07.331Z,101434.20
2018-10-17T12:23:37.210Z,101437.74
2018-10-17T12:26:06.225Z,101434.19
2018-10-17T12:28:39.456Z,101438.84
2018-10-17T12:31:11.608Z,101437.47
2018-10-17T12:33:48.932Z,101439.11
2018-10-17T12:36:23.437Z,101438.03
2018-10-17T12:38:57.562Z,101437.72
2018-10-17T12:41:30.475Z,101431.70
2018-10-17T12:44:09.154Z,101433.07
2018-10-17T12:46:50.566Z,101430.34
2018-10-17T12:49:21.512Z,101429.23
2018-10-17T12:51:51.603Z,101427.58
2018-10-17T12:54:21.091Z,101422.97
2018-10-17T12:56:53.135Z,101428.72
2018-10-17T12:59:23.094Z,101427.06
2018-10-17T13:02:01.707Z,101429.53
2018-10-17T13:04:37.839Z,101422.97
2018-10-17T13:07:08.245Z,101422.11
2018-10-17T13:09:44.169Z,101430.08
2018-10-17T13:12:29.526Z,101421.88
2018-10-17T13:15:12.452Z,101419.39
2018-10-17T13:17:43.456Z,101421.03
2018-10-17T13:20:12.677Z,101418.85
2018-10-17T13:22:46.899Z,101419.38
2018-10-17T13:25:23.362Z,101415.55
2018-10-17T13:27:59.741Z,101419.65
2018-10-17T13:30:29.650Z,101422.39
2018-10-17T13:33:03.193Z,101419.94
2018-10-17T13:35:43.352Z,101416.64
2018-10-17T13:38:12.333Z,101415.03
2018-10-17T13:40:44.261Z,101416.13
2018-10-17T13:43:13.874Z,101408.98
2018-10-17T13:45:42.856Z,101406.80
2018-10-17T13:48:15.187Z,101406.80
2018-10-17T13:50:55.446Z,101405.69
2018-10-17T13:53:27.855Z,101409.55
2018-10-17T13:55:58.839Z,101409.53
2018-10-17T13:58:32.815Z,101410.06
2018-10-17T14:01:11.966Z,101409.27
2018-10-17T14:03:48.566Z,101412.28
2018-10-17T14:06:22.956Z,101410.65
2018-10-17T14:08:58.854Z,101413.36
2018-10-17T14:11:32.319Z,101410.34
2018-10-17T14:14:13.745Z,101412.30
2018-10-17T14:16:43.764Z,101405.67
2018-10-17T14:19:12.681Z,101404.06
2018-10-17T14:21:41.796Z,101407.89
2018-10-17T14:24:11.821Z,101405.42
2018-10-17T14:26:41.760Z,101401.56
2018-10-17T14:29:16.813Z,101403.50
2018-10-17T14:31:53.589Z,101401.85
2018-10-17T14:34:22.497Z,101404.08
2018-10-17T14:36:54.727Z,101402.13
2018-10-17T14:39:23.843Z,101403.80
2018-10-17T14:41:52.753Z,101403.80
2018-10-17T14:44:21.679Z,101400.22
2018-10-17T14:46:54.081Z,101400.50
2018-10-17T14:49:23.083Z,101404.86
2018-10-17T14:52:12.933Z,101403.78
2018-10-17T14:55:00.624Z,101406.23
2018-10-17T14:57:29.934Z,101405.17
2018-10-17T15:00:07.986Z,101398.61
2018-10-17T15:05:36.034Z,101402.13
2018-10-17T15:08:15.286Z,101398.05
2018-10-17T15:10:45.335Z,101408.71
2018-10-17T15:13:17.305Z,101405.44
2018-10-17T15:15:58.714Z,101409.56
2018-10-17T15:18:37.661Z,101411.70
2018-10-17T15:21:20.885Z,101412.55
2018-10-17T15:24:06.978Z,101410.63
2018-10-17T15:26:52.437Z,101411.16
2018-10-17T15:29:25.293Z,101411.17
2018-10-17T15:31:56.346Z,101410.37
2018-10-17T15:34:25.305Z,101419.14
2018-10-17T15:37:00.981Z,101416.94
2018-10-17T19:30:00.694Z,101607.60
2018-10-17T19:32:29.795Z,101607.08
2018-10-17T19:35:04.528Z,101606.80
2018-10-17T19:37:33.948Z,101608.86
2018-10-17T19:40:03.255Z,101602.27
2018-10-17T19:42:38.777Z,101606.20
2018-10-17T19:45:11.968Z,101612.98
2018-10-17T19:47:54.883Z,101607.97
2018-10-17T19:50:25.817Z,101612.94
2018-10-17T19:53:00.377Z,101615.45
2018-10-17T19:55:33.181Z,101615.95
2018-10-17T19:58:20.859Z,101614.56
2018-10-17T20:00:55.736Z,101622.14
2018-10-17T20:03:25.848Z,101619.59
2018-10-17T20:05:56.437Z,101619.47
2018-10-17T20:08:28.897Z,101624.88
2018-10-17T20:10:59.475Z,101626.02
2018-10-17T20:13:30.635Z,101628.70
2018-10-17T20:16:05.484Z,101628.41
2018-10-17T20:18:34.536Z,101625.91
2018-10-17T20:21:03.902Z,101629.13
2018-10-17T20:23:35.147Z,101628.80
2018-10-17T20:26:09.968Z,101626.80
2018-10-17T20:28:41.274Z,101628.45
2018-10-17T20:31:10.222Z,101629.00
2018-10-17T20:33:39.464Z,101627.09
2018-10-17T20:36:20.908Z,101629.73
2018-10-17T20:38:57.120Z,101633.22
2018-10-17T20:41:29.714Z,101628.74
2018-10-17T20:43:58.767Z,101636.31
2018-10-17T20:46:33.607Z,101636.06
2018-10-17T20:49:02.760Z,101634.41
2018-10-17T20:51:31.851Z,101637.97
2018-10-17T20:54:06.821Z,101638.70
2018-10-17T20:56:40.070Z,101641.66
2018-10-17T20:59:09.056Z,101640.86
2018-10-17T21:01:43.089Z,101644.43
2018-10-17T21:04:18.607Z,101644.98
2018-10-17T21:06:52.410Z,101646.30
2018-10-17T21:09:22.447Z,101657.39
2018-10-17T21:11:59.682Z,101658.15
2018-10-17T21:14:28.707Z,101664.05
2018-10-17T21:16:57.656Z,101666.78
2018-10-17T21:19:28.628Z,101663.97
2018-10-17T21:22:01.455Z,101660.19
2018-10-17T21:24:41.642Z,101661.74
2018-10-17T21:27:12.576Z,101667.33
2018-10-17T21:29:43.642Z,101662.80
2018-10-17T21:32:13.676Z,101670.10
2018-10-17T21:34:46.365Z,101666.54
2018-10-17T21:37:18.346Z,101668.91
2018-10-17T21:39:56.921Z,101672.64
2018-10-17T21:42:31.586Z,101673.11
2018-10-17T21:45:11.577Z,101672.39
2018-10-17T21:48:03.227Z,101675.11
2018-10-17T21:50:38.855Z,101673.45
2018-10-17T21:53:15.560Z,101675.62
2018-10-17T21:55:44.500Z,101675.78
2018-10-17T21:58:14.467Z,101678.95
2018-10-17T22:00:44.596Z,101677.83
2018-10-17T22:03:17.214Z,101678.20
2018-10-17T22:05:50.341Z,101675.78
2018-10-17T22:08:33.001Z,101671.95
2018-10-17T22:11:02.442Z,101670.73
2018-10-17T22:13:37.971Z,101674.95
2018-10-17T22:16:27.018Z,101676.73
2018-10-17T22:18:57.501Z,101676.43
2018-10-17T22:21:26.574Z,101675.37
2018-10-17T22:23:56.500Z,101680.75
2018-10-17T22:26:27.457Z,101682.41
2018-10-17T22:28:56.358Z,101677.42
2018-10-17T22:31:25.262Z,101677.87
2018-10-17T22:33:54.163Z,101674.80
2018-10-17T22:36:26.972Z,101677.47
2018-10-17T22:38:56.010Z,101677.20
2018-10-17T22:41:30.427Z,101679.97
2018-10-17T22:43:59.423Z,101676.41
2018-10-17T22:46:29.418Z,101680.68
2018-10-17T22:48:58.395Z,101689.32
2018-10-17T22:51:33.309Z,101687.86
2018-10-17T22:54:26.459Z,101688.95
2018-10-17T22:56:55.386Z,101690.62
2018-10-17T22:59:25.284Z,101691.03
2018-10-17T23:01:54.263Z,101696.22
2018-10-17T23:04:29.727Z,101696.99
2018-10-17T23:07:02.474Z,101701.89
2018-10-17T23:09:31.413Z,101694.45
2018-10-17T23:12:00.376Z,101694.39
2018-10-17T23:14:29.590Z,101699.83
2018-10-17T23:16:58.582Z,101702.04
2018-10-17T23:19:28.519Z,101707.98
2018-10-17T23:21:57.412Z,101702.31
2018-10-17T23:24:26.405Z,101705.38
2018-10-17T23:26:55.417Z,101698.95
2018-10-17T23:29:24.372Z,101703.73
2018-10-17T23:31:53.275Z,101697.36
2018-10-17T23:37:17.048Z,101698.91
2018-10-17T23:39:45.940Z,101702.68
2018-10-17T23:42:14.884Z,101702.73
2018-10-17T23:44:43.820Z,101699.09
2018-10-17T23:47:12.708Z,101710.77
2018-10-17T23:49:43.628Z,101707.06
2018-10-17T23:52:23.701Z,101701.95
2018-10-17T23:54:52.683Z,101701.92
2018-10-17T23:57:21.718Z,101699.30
2018-10-17T23:59:50.709Z,101702.08
